Time;durP1;ratioP1;P1;durP2;ratioP2;P2;SDS_P1;SDS_P2;PMS_P1;PMS_P2;Temp;Humidity;BMP_temperature;BMP_pressure;BME280_temperature;BME280_humidity;BME280_pressure;Samples;Min_cycle;Max_cycle;Signal;HPM_P1;HPM_P2
2020/12/14 00:02:11;;;;;;;2.35;1.55;;;9.10;89.70;;;;;;5018158;28;20121;-51
2020/12/14 00:04:37;;;;;;;2.60;1.92;;;9.10;89.50;;;;;;5027607;28;20029;-51
2020/12/14 00:07:04;;;;;;;2.95;1.83;;;9.10;89.60;;;;;;5015763;28;20033;-51
2020/12/14 00:09:31;;;;;;;3.28;2.03;;;9.10;89.80;;;;;;5019376;28;20056;-51
2020/12/14 00:12:01;;;;;;;2.53;1.58;;;9.10;89.60;;;;;;5030783;28;20421;-51
2020/12/14 00:14:27;;;;;;;3.00;1.67;;;9.10;89.80;;;;;;5027250;28;20100;-51
2020/12/14 00:16:53;;;;;;;5.70;2.50;;;9.10;89.60;;;;;;5036627;28;20564;-52
2020/12/14 00:19:19;;;;;;;4.85;2.63;;;9.10;89.70;;;;;;5036175;28;20048;-52
2020/12/14 00:21:45;;;;;;;5.03;2.38;;;9.10;89.60;;;;;;5036270;28;20045;-51
2020/12/14 00:24:10;;;;;;;1.92;1.58;;;9.10;89.70;;;;;;5035009;28;20021;-51
2020/12/14 00:26:36;;;;;;;4.43;1.77;;;9.10;89.50;;;;;;5030914;28;20030;-51
2020/12/14 00:29:02;;;;;;;2.25;1.70;;;9.10;89.70;;;;;;5017650;28;20018;-51
2020/12/14 00:31:28;;;;;;;3.13;1.77;;;9.10;89.70;;;;;;5036346;28;20021;-51
2020/12/14 00:33:53;;;;;;;1.50;1.23;;;9.10;89.60;;;;;;5027645;28;20022;-51
2020/12/14 00:36:19;;;;;;;3.47;1.63;;;9.10;89.60;;;;;;5034231;28;20033;-51
2020/12/14 00:38:45;;;;;;;2.22;1.75;;;9.10;89.60;;;;;;5028368;28;20025;-51
2020/12/14 00:41:16;;;;;;;2.45;1.73;;;9.10;89.50;;;;;;5018807;28;20042;-51
2020/12/14 00:43:42;;;;;;;3.33;1.77;;;9.10;89.70;;;;;;5016377;28;20030;-51
2020/12/14 00:46:15;;;;;;;2.65;2.10;;;9.10;89.70;;;;;;5032397;28;20039;-51
2020/12/14 00:48:42;;;;;;;4.90;2.35;;;9.00;89.50;;;;;;5035891;28;20022;-51
2020/12/14 00:51:08;;;;;;;3.60;1.83;;;9.00;89.60;;;;;;5035384;28;20037;-51
2020/12/14 00:53:34;;;;;;;3.10;1.77;;;9.10;89.60;;;;;;5031281;28;20469;-51
2020/12/14 00:56:06;;;;;;;2.30;1.65;;;9.10;89.40;;;;;;5017571;28;20029;-51
2020/12/14 00:58:33;;;;;;;5.10;2.13;;;9.00;89.40;;;;;;5015872;28;20026;-51
2020/12/14 01:00:59;;;;;;;4.15;2.22;;;9.10;89.50;;;;;;5030238;28;20049;-51
2020/12/14 01:03:25;;;;;;;3.13;2.00;;;9.00;89.30;;;;;;5035583;28;20045;-51
2020/12/14 01:05:54;;;;;;;2.47;1.67;;;9.10;89.50;;;;;;5016569;28;20061;-51
2020/12/14 01:08:21;;;;;;;2.40;1.83;;;9.00;89.30;;;;;;5016261;28;20378;-51
2020/12/14 01:10:50;;;;;;;3.03;1.67;;;9.00;89.50;;;;;;5015823;28;20116;-51
2020/12/14 01:13:16;;;;;;;2.70;1.85;;;9.00;89.30;;;;;;5018549;28;20033;-52
2020/12/14 01:15:43;;;;;;;2.83;2.08;;;9.00;89.40;;;;;;5031700;28;20033;-51
2020/12/14 01:18:09;;;;;;;4.28;2.05;;;9.00;89.50;;;;;;5035476;28;20091;-51
2020/12/14 01:20:39;;;;;;;3.05;2.38;;;9.00;89.30;;;;;;5034935;28;20037;-52
2020/12/14 01:23:05;;;;;;;2.83;1.95;;;9.00;89.30;;;;;;5032470;28;20030;-51
2020/12/14 01:25:31;;;;;;;3.78;1.85;;;9.00;89.30;;;;;;5029349;28;20036;-51
2020/12/14 01:27:57;;;;;;;2.83;2.20;;;9.00;89.30;;;;;;5033007;28;20052;-51
2020/12/14 01:30:24;;;;;;;2.30;1.70;;;9.00;89.30;;;;;;5015199;28;20026;-51
2020/12/14 01:32:52;;;;;;;2.67;1.85;;;9.00;89.10;;;;;;5015636;28;20092;-51
2020/12/14 01:35:18;;;;;;;2.25;1.50;;;9.00;89.20;;;;;;5027252;28;20075;-51
2020/12/14 01:37:44;;;;;;;3.03;1.95;;;9.00;89.20;;;;;;5031890;28;20025;-51
2020/12/14 01:40:10;;;;;;;5.35;1.85;;;9.00;89.20;;;;;;5034310;28;20040;-51
2020/12/14 01:42:39;;;;;;;4.13;1.85;;;9.00;89.20;;;;;;5034830;28;20456;-51
2020/12/14 01:45:06;;;;;;;1.50;1.40;;;8.90;89.20;;;;;;5024730;28;20029;-51
2020/12/14 01:47:42;;;;;;;3.00;1.90;;;8.90;89.10;;;;;;5015073;28;20502;-51
2020/12/14 01:50:11;;;;;;;2.80;1.50;;;9.00;90.00;;;;;;5015303;28;20037;-51
2020/12/14 01:52:39;;;;;;;2.67;2.00;;;8.90;89.20;;;;;;5015019;28;20030;-52
2020/12/14 01:55:07;;;;;;;3.60;1.88;;;8.90;89.10;;;;;;5025077;28;20029;-51
2020/12/14 01:57:33;;;;;;;3.78;2.08;;;8.90;89.20;;;;;;5028974;28;20080;-52
2020/12/14 01:59:59;;;;;;;3.55;2.30;;;8.90;89.10;;;;;;5016352;28;20040;-52
2020/12/14 02:02:25;;;;;;;3.95;2.40;;;8.90;89.20;;;;;;5034635;28;20425;-51
2020/12/14 02:04:51;;;;;;;5.03;2.53;;;8.90;89.20;;;;;;5030283;28;20017;-51
2020/12/14 02:07:17;;;;;;;2.72;1.85;;;8.90;89.10;;;;;;5034481;28;20108;-51
2020/12/14 02:09:43;;;;;;;5.22;1.90;;;8.90;89.20;;;;;;5034059;28;20053;-52
2020/12/14 02:12:09;;;;;;;3.30;2.05;;;8.90;89.10;;;;;;5032695;28;20053;-51
2020/12/14 02:14:36;;;;;;;1.83;1.52;;;8.90;89.10;;;;;;5025152;28;20121;-52
2020/12/14 02:17:06;;;;;;;3.30;1.70;;;8.90;89.10;;;;;;5014671;28;20502;-52
2020/12/14 02:19:32;;;;;;;3.35;1.98;;;8.80;89.00;;;;;;5014951;28;20038;-51
2020/12/14 02:21:58;;;;;;;2.97;1.88;;;8.90;89.00;;;;;;5026319;28;20052;-52
2020/12/14 02:24:24;;;;;;;3.08;1.75;;;8.90;89.00;;;;;;5029973;28;20026;-52
2020/12/14 02:26:51;;;;;;;3.67;2.20;;;8.80;89.00;;;;;;5023614;28;20042;-51
2020/12/14 02:29:19;;;;;;;4.13;2.25;;;8.90;89.00;;;;;;5017353;28;20029;-52
2020/12/14 02:31:46;;;;;;;3.05;1.88;;;8.90;89.00;;;;;;5037613;28;20473;-51
2020/12/14 02:34:12;;;;;;;3.70;2.47;;;8.90;88.90;;;;;;5035096;28;20086;-51
2020/12/14 02:36:40;;;;;;;4.35;2.53;;;8.80;88.80;;;;;;5018347;28;20030;-51
2020/12/14 02:39:06;;;;;;;4.07;2.38;;;8.90;89.00;;;;;;5019824;28;20033;-51
2020/12/14 02:41:32;;;;;;;2.88;2.08;;;8.90;88.90;;;;;;5035554;28;20575;-51
2020/12/14 02:43:57;;;;;;;4.75;2.03;;;8.80;88.90;;;;;;5037668;28;20040;-51
2020/12/14 02:46:23;;;;;;;3.15;1.95;;;8.90;89.00;;;;;;5019332;28;20071;-51
2020/12/14 02:48:49;;;;;;;5.00;2.00;;;8.90;88.90;;;;;;5018311;28;20037;-51
2020/12/14 02:51:18;;;;;;;4.55;2.35;;;8.80;88.70;;;;;;5036785;28;20025;-51
2020/12/14 02:53:46;;;;;;;3.08;1.73;;;8.80;88.90;;;;;;5037781;28;20037;-51
2020/12/14 02:56:11;;;;;;;3.03;1.90;;;8.80;88.90;;;;;;5028186;28;20068;-52
2020/12/14 02:58:37;;;;;;;6.65;2.83;;;8.80;88.90;;;;;;5024249;28;20065;-52
2020/12/14 03:01:03;;;;;;;3.03;2.10;;;8.80;88.80;;;;;;5022099;28;20045;-51
2020/12/14 03:03:28;;;;;;;2.92;2.30;;;8.80;88.90;;;;;;5018081;28;20479;-51
2020/12/14 03:05:54;;;;;;;4.72;1.95;;;8.80;88.80;;;;;;5029179;28;20031;-51
2020/12/14 03:08:19;;;;;;;2.10;1.67;;;8.80;88.80;;;;;;5032383;28;20037;-52
2020/12/14 03:10:45;;;;;;;3.00;1.92;;;8.80;88.70;;;;;;5037855;28;20028;-51
2020/12/14 03:13:10;;;;;;;3.63;2.38;;;8.80;88.70;;;;;;5032959;28;20429;-51
2020/12/14 03:15:39;;;;;;;3.13;1.90;;;8.80;88.70;;;;;;5024230;28;20026;-51
2020/12/14 03:18:06;;;;;;;2.40;1.55;;;8.80;88.80;;;;;;5017886;28;20080;-51
2020/12/14 03:20:35;;;;;;;4.28;2.58;;;8.80;88.60;;;;;;5017641;28;20451;-51
2020/12/14 03:23:00;;;;;;;2.15;1.80;;;8.80;88.60;;;;;;5027261;28;20034;-51
2020/12/14 03:25:26;;;;;;;3.40;2.42;;;8.80;88.60;;;;;;5024342;28;20033;-51
2020/12/14 03:27:52;;;;;;;3.13;1.85;;;8.80;88.50;;;;;;5032257;28;20037;-52
2020/12/14 03:30:18;;;;;;;3.70;2.15;;;8.80;88.60;;;;;;5034589;28;20029;-52
2020/12/14 03:32:45;;;;;;;4.38;1.95;;;8.80;88.70;;;;;;5022554;28;20022;-51
2020/12/14 03:35:10;;;;;;;4.10;2.05;;;8.80;88.50;;;;;;5028473;28;20037;-51
2020/12/14 03:37:36;;;;;;;2.50;1.67;;;8.80;88.60;;;;;;5036621;28;20028;-51
2020/12/14 03:40:02;;;;;;;3.50;2.20;;;8.80;88.50;;;;;;5036300;28;20038;-51
2020/12/14 03:42:29;;;;;;;4.18;2.22;;;8.80;88.60;;;;;;5015973;28;20033;-51
2020/12/14 03:44:55;;;;;;;2.17;1.75;;;8.80;88.50;;;;;;5029969;28;20112;-51
2020/12/14 03:47:21;;;;;;;4.05;2.20;;;8.80;88.50;;;;;;5037099;28;20113;-51
2020/12/14 03:49:46;;;;;;;3.50;1.98;;;8.80;88.30;;;;;;5018842;28;20045;-51
2020/12/14 03:52:12;;;;;;;1.92;1.58;;;8.80;88.30;;;;;;5016844;28;20022;-51
2020/12/14 03:54:37;;;;;;;5.78;2.13;;;8.70;88.30;;;;;;5031105;28;20458;-51
2020/12/14 03:57:03;;;;;;;2.78;1.92;;;8.80;88.30;;;;;;5031897;28;20038;-52
2020/12/14 03:59:29;;;;;;;2.72;2.08;;;8.70;88.30;;;;;;5017236;28;20482;-51
2020/12/14 04:01:58;;;;;;;2.83;1.98;;;8.70;88.30;;;;;;5015363;28;20530;-51
2020/12/14 04:04:24;;;;;;;2.47;1.90;;;8.70;88.30;;;;;;5017603;28;20076;-51
2020/12/14 04:06:49;;;;;;;4.03;2.20;;;8.70;88.20;;;;;;5035487;28;20414;-51
2020/12/14 04:09:15;;;;;;;4.32;2.75;;;8.70;88.20;;;;;;5028960;28;20026;-51
2020/12/14 04:11:40;;;;;;;4.07;2.20;;;8.70;88.20;;;;;;5017067;28;20022;-51
2020/12/14 04:14:06;;;;;;;3.08;2.20;;;8.70;88.10;;;;;;5025421;28;20535;-51
2020/12/14 04:16:32;;;;;;;3.95;2.22;;;8.70;88.10;;;;;;5017573;28;20038;-51
2020/12/14 04:18:57;;;;;;;3.38;1.90;;;8.70;88.10;;;;;;5016663;28;20022;-51
2020/12/14 04:21:23;;;;;;;2.15;1.80;;;8.70;88.20;;;;;;5016461;28;20394;-51
2020/12/14 04:23:49;;;;;;;1.92;1.73;;;8.70;88.10;;;;;;5019191;28;20363;-51
2020/12/14 04:26:14;;;;;;;3.03;1.90;;;8.70;88.10;;;;;;5032225;28;20103;-52
2020/12/14 04:28:41;;;;;;;5.53;2.20;;;8.70;88.00;;;;;;5035766;28;20029;-51
2020/12/14 04:31:06;;;;;;;4.28;2.45;;;8.70;88.00;;;;;;5036174;28;20029;-51
2020/12/14 04:33:32;;;;;;;3.45;2.08;;;8.70;88.00;;;;;;5036305;28;20036;-51
2020/12/14 04:35:58;;;;;;;2.47;1.70;;;8.70;88.00;;;;;;5027147;28;20359;-52
2020/12/14 04:38:24;;;;;;;3.00;1.92;;;8.70;87.90;;;;;;5019103;28;20408;-51
2020/12/14 04:40:51;;;;;;;4.95;2.78;;;8.70;87.90;;;;;;5025975;28;20045;-51
2020/12/14 04:43:16;;;;;;;2.50;1.80;;;8.70;87.90;;;;;;5016194;28;20459;-51
2020/12/14 04:45:44;;;;;;;2.90;1.65;;;8.70;87.90;;;;;;5027280;28;20044;-51
2020/12/14 04:48:10;;;;;;;2.38;1.85;;;8.70;87.90;;;;;;5035720;28;20056;-51
2020/12/14 04:50:38;;;;;;;3.53;2.10;;;8.70;88.00;;;;;;5025383;28;20062;-51
2020/12/14 04:53:05;;;;;;;2.33;1.85;;;8.70;87.90;;;;;;5029220;28;20121;-51
2020/12/14 04:55:36;;;;;;;2.45;1.90;;;8.70;87.80;;;;;;5026393;28;20109;-51
2020/12/14 04:58:04;;;;;;;5.03;2.10;;;8.70;87.80;;;;;;5029198;28;20029;-52
2020/12/14 05:00:30;;;;;;;4.82;2.20;;;8.70;87.50;;;;;;5023212;28;20034;-52
2020/12/14 05:02:57;;;;;;;3.05;1.80;;;8.70;87.90;;;;;;5019997;28;20469;-52
2020/12/14 05:05:23;;;;;;;3.13;2.38;;;8.70;87.60;;;;;;5024675;28;20467;-52
2020/12/14 05:07:49;;;;;;;4.35;1.98;;;8.70;88.50;;;;;;5027579;28;20031;-51
2020/12/14 05:10:15;;;;;;;4.30;2.03;;;8.70;87.70;;;;;;5017597;28;20030;-51
2020/12/14 05:12:43;;;;;;;3.80;2.30;;;8.70;87.80;;;;;;5031462;28;20459;-51
2020/12/14 05:15:21;;;;;;;2.28;1.95;;;8.70;87.70;;;;;;5021344;28;20455;-51
2020/12/14 05:17:49;;;;;;;4.45;2.60;;;8.70;87.70;;;;;;5031580;28;20048;-51
2020/12/14 05:20:20;;;;;;;3.22;2.10;;;8.70;88.50;;;;;;5015933;28;20363;-52
2020/12/14 05:23:05;;;;;;;5.13;2.58;;;8.60;87.70;;;;;;5029959;28;20530;-52
2020/12/14 05:25:31;;;;;;;3.20;2.00;;;8.70;87.70;;;;;;5030429;28;20352;-52
2020/12/14 05:28:16;;;;;;;2.80;2.03;;;8.70;87.70;;;;;;5020208;28;20460;-52
2020/12/14 05:30:50;;;;;;;3.58;2.38;;;8.70;87.70;;;;;;5019543;28;20087;-52
2020/12/14 05:33:18;;;;;;;4.03;2.55;;;8.70;87.60;;;;;;5032542;28;20030;-52
2020/12/14 05:35:44;;;;;;;3.47;2.10;;;8.70;87.40;;;;;;5032078;28;20124;-52
2020/12/14 05:38:21;;;;;;;2.95;1.73;;;8.70;87.50;;;;;;5026119;28;20065;-52
2020/12/14 05:40:51;;;;;;;3.67;2.15;;;8.70;87.50;;;;;;5028610;28;20045;-51
2020/12/14 05:43:19;;;;;;;3.53;2.15;;;8.70;87.60;;;;;;5035187;28;20021;-52
2020/12/14 05:45:46;;;;;;;2.78;1.52;;;8.70;87.40;;;;;;5023940;28;20038;-52
2020/12/14 05:48:28;;;;;;;3.67;2.20;;;8.70;87.40;;;;;;5015245;28;20105;-55
2020/12/14 05:50:57;;;;;;;1.60;1.42;;;8.70;87.40;;;;;;5015046;28;20061;-52
2020/12/14 05:53:38;;;;;;;3.72;2.15;;;8.70;87.90;;;;;;5022026;28;20037;-52
2020/12/14 05:56:05;;;;;;;2.67;2.08;;;8.70;87.70;;;;;;5022704;28;20030;-52
2020/12/14 05:58:32;;;;;;;4.88;2.65;;;8.70;87.20;;;;;;5033653;28;20075;-52
2020/12/14 06:01:00;;;;;;;3.45;2.00;;;8.70;87.00;;;;;;5018936;28;20034;-52
2020/12/14 06:03:26;;;;;;;5.63;2.80;;;8.70;86.90;;;;;;5029769;28;20358;-51
2020/12/14 06:06:15;;;;;;;9.05;2.92;;;8.70;86.80;;;;;;5031465;28;20446;-51
2020/12/14 06:08:46;;;;;;;4.13;2.40;;;8.70;86.80;;;;;;5015368;28;20044;-51
2020/12/14 06:11:17;;;;;;;2.65;2.00;;;8.70;86.70;;;;;;5017563;28;20037;-51
2020/12/14 06:13:55;;;;;;;6.70;2.65;;;8.70;86.70;;;;;;5031538;28;20022;-51
2020/12/14 06:16:22;;;;;;;3.92;2.13;;;8.70;86.70;;;;;;5024681;28;20026;-51
2020/12/14 06:18:48;;;;;;;3.75;2.47;;;8.70;86.70;;;;;;5020648;28;20034;-52
2020/12/14 06:21:21;;;;;;;4.88;2.63;;;8.70;86.60;;;;;;5018564;28;20048;-51
2020/12/14 06:23:49;;;;;;;4.65;2.45;;;8.70;86.80;;;;;;5025972;28;20026;-52
2020/12/14 06:26:15;;;;;;;4.45;2.92;;;8.70;86.80;;;;;;5021044;28;20038;-51
2020/12/14 06:28:48;;;;;;;4.13;2.67;;;8.70;86.80;;;;;;5010127;28;20486;-52
2020/12/14 06:31:39;;;;;;;8.48;3.03;;;8.70;86.70;;;;;;5019915;28;20354;-52
2020/12/14 06:34:30;;;;;;;4.57;3.00;;;8.70;86.70;;;;;;5023393;28;20152;-51
2020/12/14 06:36:56;;;;;;;8.68;3.55;;;8.70;86.70;;;;;;5020210;28;20482;-52
2020/12/14 06:39:33;;;;;;;8.48;3.58;;;8.70;86.60;;;;;;5034329;28;20026;-52
2020/12/14 06:42:07;;;;;;;7.65;3.38;;;8.70;86.80;;;;;;5022914;28;20041;-51
2020/12/14 06:44:34;;;;;;;8.85;4.00;;;8.70;86.90;;;;;;5028758;28;20037;-52
2020/12/14 06:47:16;;;;;;;6.05;3.47;;;8.70;86.70;;;;;;5032188;28;20053;-52
2020/12/14 06:49:42;;;;;;;7.72;4.20;;;8.70;86.80;;;;;;5025551;28;20054;-52
2020/12/14 06:52:08;;;;;;;8.63;3.60;;;8.70;86.70;;;;;;5016478;28;20054;-52
2020/12/14 06:54:45;;;;;;;9.32;4.28;;;8.70;86.80;;;;;;5026785;28;20033;-52
2020/12/14 06:57:15;;;;;;;5.80;3.03;;;8.70;86.70;;;;;;5022725;28;20139;-52
2020/12/14 06:59:53;;;;;;;5.32;3.25;;;8.70;86.70;;;;;;5023491;28;20113;-51
2020/12/14 07:02:33;;;;;;;9.50;3.95;;;8.70;86.80;;;;;;5014519;28;20046;-52
2020/12/14 07:04:59;;;;;;;11.93;4.55;;;8.70;86.80;;;;;;5014365;28;20033;-51
2020/12/14 07:07:25;;;;;;;9.30;4.05;;;8.70;86.70;;;;;;5033381;28;20044;-52
2020/12/14 07:09:50;;;;;;;7.50;3.83;;;8.70;86.70;;;;;;5024365;28;20024;-51
2020/12/14 07:12:16;;;;;;;11.88;4.70;;;8.70;86.80;;;;;;5022511;28;20021;-52
2020/12/14 07:14:45;;;;;;;7.53;3.70;;;8.70;86.70;;;;;;5030268;28;20351;-51
2020/12/14 07:17:22;;;;;;;5.65;3.15;;;8.70;86.70;;;;;;5029035;28;20066;-52
2020/12/14 07:19:52;;;;;;;8.77;3.40;;;8.70;86.70;;;;;;5034469;28;20034;-51
2020/12/14 07:22:20;;;;;;;7.30;3.60;;;8.70;86.80;;;;;;5036393;28;20529;-52
2020/12/14 07:25:06;;;;;;;4.93;3.00;;;8.70;86.70;;;;;;5035051;28;20459;-52
2020/12/14 07:27:33;;;;;;;4.25;3.10;;;8.70;86.80;;;;;;5036370;28;20028;-51
2020/12/14 07:30:10;;;;;;;5.00;3.35;;;8.70;86.80;;;;;;5020680;28;20509;-51
2020/12/14 07:32:36;;;;;;;6.47;3.22;;;8.80;86.90;;;;;;5019731;28;20124;-51
2020/12/14 07:35:06;;;;;;;4.93;3.08;;;8.70;86.80;;;;;;5035489;28;20026;-51
2020/12/14 07:37:32;;;;;;;10.40;3.80;;;8.80;86.70;;;;;;5036169;28;20083;-51
2020/12/14 07:39:58;;;;;;;5.72;3.17;;;8.70;86.80;;;;;;5033065;28;20457;-51
2020/12/14 07:42:33;;;;;;;7.43;3.50;;;8.80;86.70;;;;;;5019256;28;20034;-51
2020/12/14 07:45:09;;;;;;;9.27;4.18;;;8.80;86.60;;;;;;5036484;28;20029;-52
2020/12/14 07:47:36;;;;;;;6.57;3.45;;;8.80;86.70;;;;;;5017982;28;20045;-51
2020/12/14 07:50:13;;;;;;;4.53;2.92;;;8.70;86.60;;;;;;5025724;28;20068;-52
2020/12/14 07:52:40;;;;;;;8.00;3.95;;;8.80;86.80;;;;;;5033397;28;20033;-52
2020/12/14 07:55:08;;;;;;;9.15;4.38;;;8.80;86.80;;;;;;5025917;28;20026;-51
2020/12/14 07:57:44;;;;;;;7.35;3.42;;;8.80;86.70;;;;;;5024973;28;20030;-52
2020/12/14 08:00:15;;;;;;;8.90;3.60;;;8.80;86.70;;;;;;5016729;28;20030;-52
2020/12/14 08:02:43;;;;;;;6.85;3.80;;;8.80;86.70;;;;;;5017928;28;20083;-51
2020/12/14 08:05:13;;;;;;;7.45;4.07;;;8.80;86.70;;;;;;5016292;28;20037;-52
2020/12/14 08:08:03;;;;;;;8.32;4.10;;;8.80;86.70;;;;;;5028743;28;20467;-52
2020/12/14 08:10:33;;;;;;;14.88;5.10;;;8.80;86.60;;;;;;5020853;28;20091;-52
2020/12/14 08:13:03;;;;;;;12.15;4.72;;;8.80;86.70;;;;;;5028851;28;20026;-52
2020/12/14 08:15:31;;;;;;;6.97;3.45;;;8.80;86.70;;;;;;5031452;28;20034;-52
2020/12/14 08:17:59;;;;;;;7.18;3.47;;;8.80;86.80;;;;;;5031610;28;20025;-52
2020/12/14 08:20:29;;;;;;;11.73;4.90;;;8.80;86.80;;;;;;5018958;28;20033;-51
2020/12/14 08:22:58;;;;;;;8.70;3.95;;;8.80;86.70;;;;;;5018773;28;20072;-52
2020/12/14 08:25:27;;;;;;;9.40;4.35;;;8.80;86.80;;;;;;5032211;28;20025;-52
2020/12/14 08:27:58;;;;;;;9.43;4.30;;;8.80;86.70;;;;;;5021039;28;20056;-51
2020/12/14 08:30:25;;;;;;;12.07;4.72;;;8.80;86.80;;;;;;5025993;28;20053;-52
2020/12/14 08:33:19;;;;;;;10.55;5.22;;;8.80;86.70;;;;;;5030625;28;20041;-52
2020/12/14 08:35:53;;;;;;;9.80;4.60;;;8.90;86.80;;;;;;5024194;28;20037;-51
2020/12/14 08:38:24;;;;;;;11.85;5.13;;;8.80;86.70;;;;;;5024197;28;20039;-52
2020/12/14 08:40:54;;;;;;;12.93;4.32;;;8.80;86.80;;;;;;5025982;28;20038;-51
2020/12/14 08:43:22;;;;;;;12.07;4.43;;;8.90;86.90;;;;;;5019510;28;20037;-52
2020/12/14 08:46:11;;;;;;;11.35;5.15;;;8.80;87.00;;;;;;5015697;28;20045;-52
2020/12/14 08:48:50;;;;;;;9.90;3.75;;;8.90;86.90;;;;;;5020664;28;20025;-52
2020/12/14 08:51:18;;;;;;;5.95;3.20;;;8.90;87.00;;;;;;5026572;28;20038;-52
2020/12/14 08:53:45;;;;;;;11.35;5.72;;;8.90;87.10;;;;;;5026632;28;20029;-51
2020/12/14 08:56:16;;;;;;;12.88;5.75;;;8.90;87.40;;;;;;5023546;28;20355;-52
2020/12/14 08:58:55;;;;;;;10.75;5.22;;;8.90;87.10;;;;;;5027281;28;20036;-52
2020/12/14 09:01:24;;;;;;;7.85;3.72;;;8.90;87.00;;;;;;5033143;28;20315;-51
2020/12/14 09:03:56;;;;;;;9.90;4.75;;;8.80;87.00;;;;;;5022985;28;20021;-52
2020/12/14 09:06:25;;;;;;;11.73;4.28;;;8.90;87.30;;;;;;5027454;28;20355;-52
2020/12/14 09:09:13;;;;;;;4.47;3.13;;;8.90;87.10;;;;;;5022705;28;20023;-52
2020/12/14 09:11:42;;;;;;;7.97;4.32;;;8.90;87.30;;;;;;5024121;28;20355;-52
2020/12/14 09:14:09;;;;;;;3.13;2.42;;;8.90;87.30;;;;;;5022294;28;20117;-51
2020/12/14 09:16:36;;;;;;;6.07;3.70;;;8.90;87.30;;;;;;5021787;28;20032;-52
2020/12/14 09:19:03;;;;;;;1.13;1.08;;;8.90;87.40;;;;;;5013604;28;20053;-52
2020/12/14 09:21:31;;;;;;;7.75;3.92;;;8.90;87.30;;;;;;5028447;28;20038;-52
2020/12/14 09:24:20;;;;;;;6.75;2.70;;;8.90;87.30;;;;;;5020312;28;20025;-52
2020/12/14 09:26:48;;;;;;;9.05;4.35;;;8.90;87.20;;;;;;5026246;28;20104;-52
2020/12/14 09:29:14;;;;;;;6.45;3.65;;;8.90;87.40;;;;;;5043235;28;20033;-52
2020/12/14 09:31:54;;;;;;;8.55;3.83;;;8.90;87.10;;;;;;5034091;28;20051;-52
2020/12/14 09:34:20;;;;;;;8.82;4.70;;;8.90;87.40;;;;;;5016272;28;20058;-51
2020/12/14 09:36:50;;;;;;;7.82;4.35;;;8.90;87.00;;;;;;5023284;28;20489;-52
2020/12/14 09:39:17;;;;;;;9.63;3.95;;;9.00;87.30;;;;;;5033921;28;20455;-52
2020/12/14 09:41:42;;;;;;;9.60;4.68;;;8.90;87.30;;;;;;5034542;28;20129;-52
2020/12/14 09:44:08;;;;;;;8.55;4.43;;;8.90;87.10;;;;;;5025834;28;20502;-52
2020/12/14 09:46:34;;;;;;;9.70;5.28;;;8.90;87.30;;;;;;5021377;28;20029;-52
2020/12/14 09:48:59;;;;;;;8.63;4.18;;;8.90;87.40;;;;;;5014569;28;20103;-52
2020/12/14 09:51:27;;;;;;;11.35;5.35;;;9.00;87.50;;;;;;5019441;28;20478;-51
2020/12/14 09:53:53;;;;;;;14.75;5.45;;;8.90;87.30;;;;;;5025978;28;20033;-52
2020/12/14 09:56:19;;;;;;;10.60;5.45;;;9.00;87.30;;;;;;5021290;28;20486;-51
2020/12/14 09:58:45;;;;;;;11.23;5.13;;;9.00;87.40;;;;;;5019961;28;20037;-52
2020/12/14 10:01:11;;;;;;;5.72;3.08;;;9.00;87.30;;;;;;5025295;28;20088;-52
2020/12/14 10:03:36;;;;;;;9.23;4.38;;;9.00;87.40;;;;;;5028741;28;20030;-51
2020/12/14 10:06:02;;;;;;;9.57;4.00;;;9.00;87.20;;;;;;5025516;28;20075;-51
2020/12/14 10:08:28;;;;;;;7.78;4.35;;;9.00;87.30;;;;;;5034589;28;20018;-52
2020/12/14 10:10:57;;;;;;;9.70;2.78;;;9.00;87.30;;;;;;5020814;28;20034;-52
2020/12/14 10:13:23;;;;;;;7.57;4.30;;;9.00;87.40;;;;;;5014916;28;20029;-51
2020/12/14 10:15:49;;;;;;;10.25;4.50;;;9.00;87.60;;;;;;5016274;28;20100;-51
2020/12/14 10:18:15;;;;;;;12.40;5.13;;;9.00;87.60;;;;;;5020317;28;20021;-52
2020/12/14 10:20:41;;;;;;;13.13;4.95;;;9.00;87.70;;;;;;5026260;28;20029;-52
2020/12/14 10:23:08;;;;;;;5.97;3.65;;;9.00;87.40;;;;;;5027772;28;20371;-52
2020/12/14 10:25:35;;;;;;;13.43;4.32;;;9.00;87.80;;;;;;5014790;28;20072;-51
2020/12/14 10:28:01;;;;;;;15.60;5.28;;;9.00;87.50;;;;;;5013214;28;20176;-52
2020/12/14 10:30:26;;;;;;;11.52;4.82;;;9.00;87.40;;;;;;5017590;28;20038;-52
2020/12/14 10:32:52;;;;;;;11.23;4.65;;;9.00;87.50;;;;;;5033420;28;20128;-52
2020/12/14 10:35:18;;;;;;;15.52;6.78;;;9.00;87.70;;;;;;5024650;28;20049;-52
2020/12/14 10:37:43;;;;;;;6.75;2.75;;;9.00;87.70;;;;;;5027335;28;20025;-52
2020/12/14 10:40:09;;;;;;;10.98;4.85;;;9.00;88.10;;;;;;5031748;28;20028;-52
2020/12/14 10:42:34;;;;;;;11.60;4.57;;;9.00;87.80;;;;;;5020122;28;20034;-52
2020/12/14 10:45:01;;;;;;;15.32;6.68;;;9.00;87.50;;;;;;5020617;28;20459;-52
2020/12/14 10:47:28;;;;;;;11.60;5.82;;;9.00;87.90;;;;;;5019592;28;20536;-51
2020/12/14 10:49:54;;;;;;;17.88;6.22;;;9.00;87.90;;;;;;5016200;28;20145;-52
2020/12/14 10:52:19;;;;;;;12.48;5.70;;;9.00;87.90;;;;;;5035358;28;20045;-52
2020/12/14 10:54:45;;;;;;;14.52;6.43;;;9.00;87.50;;;;;;5021189;28;20037;-52
2020/12/14 10:57:11;;;;;;;6.60;3.90;;;9.00;87.70;;;;;;5018387;28;20034;-52
2020/12/14 10:59:36;;;;;;;13.98;6.03;;;9.10;88.10;;;;;;5034969;28;20032;-52
2020/12/14 11:02:02;;;;;;;11.90;5.35;;;9.00;88.00;;;;;;5028931;28;20041;-52
2020/12/14 11:04:27;;;;;;;14.63;5.53;;;9.00;88.00;;;;;;5034446;28;20026;-52
2020/12/14 11:06:53;;;;;;;11.55;5.18;;;9.10;87.70;;;;;;5028574;28;20152;-51
2020/12/14 11:09:19;;;;;;;13.02;5.78;;;9.10;87.50;;;;;;5029108;28;20470;-51
2020/12/14 11:11:44;;;;;;;11.65;5.80;;;9.10;87.60;;;;;;5022466;28;20422;-52
2020/12/14 11:14:10;;;;;;;15.07;6.05;;;9.10;87.80;;;;;;5027209;28;20080;-52
2020/12/14 11:16:41;;;;;;;9.80;4.57;;;9.10;88.00;;;;;;5025382;28;20033;-52
2020/12/14 11:19:07;;;;;;;13.90;4.90;;;9.10;88.10;;;;;;5028872;28;20034;-52
2020/12/14 11:21:33;;;;;;;14.25;5.65;;;9.10;88.30;;;;;;5019379;28;20195;-52
2020/12/14 11:23:58;;;;;;;12.40;5.13;;;9.10;88.10;;;;;;5022498;28;20080;-51
2020/12/14 11:26:24;;;;;;;12.50;5.40;;;9.10;88.10;;;;;;5018802;28;20050;-52
2020/12/14 11:28:50;;;;;;;14.20;5.88;;;9.10;87.80;;;;;;5030238;28;20026;-51
2020/12/14 11:31:19;;;;;;;10.70;4.95;;;9.10;88.10;;;;;;5029371;28;20025;-51
2020/12/14 11:33:46;;;;;;;4.15;2.97;;;9.10;88.20;;;;;;5017609;28;20037;-52
2020/12/14 11:36:11;;;;;;;8.98;2.97;;;9.00;87.60;;;;;;5035052;28;20033;-51
2020/12/14 11:38:37;;;;;;;13.82;5.78;;;9.00;87.60;;;;;;5023715;28;20071;-52
2020/12/14 11:41:03;;;;;;;13.18;5.82;;;9.10;88.00;;;;;;5021098;28;20129;-52
2020/12/14 11:43:29;;;;;;;14.57;6.05;;;9.00;88.20;;;;;;5033707;28;20358;-52
2020/12/14 11:45:54;;;;;;;11.73;5.45;;;9.10;88.30;;;;;;5034228;28;20435;-52
2020/12/14 11:48:20;;;;;;;14.52;5.18;;;9.10;88.10;;;;;;5055995;28;20083;-52
2020/12/14 11:50:46;;;;;;;5.13;3.13;;;9.10;88.30;;;;;;5038864;28;20033;-52
2020/12/14 11:53:12;;;;;;;5.97;2.88;;;9.10;88.10;;;;;;5020475;28;20410;-52
2020/12/14 11:55:40;;;;;;;13.95;4.70;;;9.00;88.40;;;;;;5036039;28;20490;-52
2020/12/14 11:58:06;;;;;;;18.55;6.25;;;9.00;88.60;;;;;;5020454;28;20041;-52
2020/12/14 12:00:32;;;;;;;14.20;5.28;;;9.10;88.30;;;;;;5025056;28;20039;-52
2020/12/14 12:02:58;;;;;;;12.95;5.80;;;9.10;88.30;;;;;;5028778;28;20080;-52
2020/12/14 12:05:24;;;;;;;10.57;5.28;;;9.00;88.30;;;;;;5016500;28;20084;-52
2020/12/14 12:07:50;;;;;;;13.02;5.63;;;9.00;88.10;;;;;;5016989;28;20367;-52
2020/12/14 12:10:16;;;;;;;17.50;6.97;;;9.10;88.30;;;;;;5021137;28;20112;-52
2020/12/14 12:12:42;;;;;;;11.30;6.05;;;9.10;87.90;;;;;;5033481;28;20065;-53
2020/12/14 12:15:08;;;;;;;9.95;5.28;;;9.10;88.40;;;;;;5023140;28;20085;-52
2020/12/14 12:17:34;;;;;;;8.95;5.32;;;9.10;88.00;;;;;;5031056;28;20026;-52
2020/12/14 12:19:59;;;;;;;12.23;5.93;;;9.10;88.40;;;;;;5016735;28;20462;-52
2020/12/14 12:22:25;;;;;;;19.38;7.28;;;9.10;88.20;;;;;;5031455;28;20120;-52
2020/12/14 12:24:51;;;;;;;13.77;6.50;;;9.10;88.40;;;;;;5018163;28;20467;-52
2020/12/14 12:27:16;;;;;;;19.02;7.53;;;9.10;88.30;;;;;;5014704;28;20030;-52
2020/12/14 12:29:42;;;;;;;13.82;5.97;;;9.10;88.00;;;;;;5016544;28;20026;-52
2020/12/14 12:32:08;;;;;;;16.38;7.80;;;9.10;88.40;;;;;;5026222;28;20458;-51
2020/12/14 12:34:35;;;;;;;19.27;8.20;;;9.10;88.40;;;;;;5027131;28;20067;-52
2020/12/14 12:37:02;;;;;;;18.63;8.02;;;9.10;88.20;;;;;;5030677;28;20025;-52
2020/12/14 12:39:28;;;;;;;19.75;9.73;;;9.00;88.30;;;;;;5017843;28;20072;-51
2020/12/14 12:41:55;;;;;;;21.48;9.25;;;9.10;88.30;;;;;;5028672;28;20037;-52
2020/12/14 12:44:22;;;;;;;15.85;7.03;;;9.10;88.70;;;;;;5034812;28;20474;-52
2020/12/14 12:46:48;;;;;;;18.75;7.25;;;9.10;88.20;;;;;;5021931;28;20045;-52
2020/12/14 12:49:14;;;;;;;20.77;6.55;;;9.10;88.20;;;;;;5025681;28;20108;-52
2020/12/14 12:51:44;;;;;;;21.10;8.27;;;9.10;88.20;;;;;;5033211;28;20434;-52
2020/12/14 12:54:10;;;;;;;20.52;8.57;;;9.10;88.30;;;;;;5025489;28;20025;-52
2020/12/14 12:56:35;;;;;;;22.33;8.68;;;9.10;88.90;;;;;;5015648;28;20100;-52
2020/12/14 12:59:01;;;;;;;14.82;7.40;;;9.10;88.60;;;;;;5035803;28;20065;-52
2020/12/14 13:01:27;;;;;;;17.50;7.82;;;9.10;88.60;;;;;;5032793;28;20128;-52